Time;durP1;ratioP1;P1;durP2;ratioP2;P2;SDS_P1;SDS_P2;PMS_P1;PMS_P2;Temp;Humidity;BMP_temperature;BMP_pressure;BME280_temperature;BME280_humidity;BME280_pressure;Samples;Min_cycle;Max_cycle;Signal;HPM_P1;HPM_P2
2023/12/03 00:02:17;;;;;;;12.25;8.80;;;;;;;0.17;nan;100046.25;5000259;28;20846;-77
2023/12/03 00:04:43;;;;;;;10.00;7.63;;;;;;;0.21;nan;100043.59;4989292;28;20225;-77
2023/12/03 00:07:10;;;;;;;11.38;8.50;;;;;;;0.24;nan;100050.44;4994180;28;21063;-77
2023/12/03 00:09:38;;;;;;;9.18;7.30;;;;;;;0.22;nan;100045.31;4997886;28;20654;-77
2023/12/03 00:12:07;;;;;;;14.77;8.38;;;;;;;0.20;nan;100046.22;4995256;28;20274;-78
2023/12/03 00:14:34;;;;;;;13.48;9.13;;;;;;;0.15;nan;100048.84;5001913;28;20203;-78
2023/12/03 00:16:59;;;;;;;12.68;7.82;;;;;;;0.10;nan;100060.97;5001061;28;20195;-78
2023/12/03 00:19:25;;;;;;;14.40;8.27;;;;;;;0.05;nan;100057.59;4998518;28;20214;-77
2023/12/03 00:21:50;;;;;;;16.40;8.07;;;;;;;0.05;nan;100055.00;4999705;28;20195;-77
2023/12/03 00:24:16;;;;;;;11.40;9.50;;;;;;;0.03;nan;100058.50;4996724;28;20988;-78
2023/12/03 00:26:42;;;;;;;13.70;8.07;;;;;;;0.03;nan;100054.19;4994420;28;20485;-78
2023/12/03 00:29:07;;;;;;;12.70;9.10;;;;;;;0.05;nan;100046.41;4999573;28;20525;-78
2023/12/03 00:31:34;;;;;;;15.03;9.50;;;;;;;0.08;nan;100042.09;5001249;28;20561;-78
2023/12/03 00:34:02;;;;;;;11.18;6.93;;;;;;;0.13;nan;100036.84;4996026;28;20727;-78
2023/12/03 00:36:27;;;;;;;11.65;6.50;;;;;;;0.15;nan;100030.78;4999195;28;20215;-78
2023/12/03 00:38:53;;;;;;;8.90;7.03;;;;;;;0.17;nan;100039.34;4998567;28;20576;-77
2023/12/03 00:41:18;;;;;;;16.40;8.77;;;;;;;0.18;nan;100048.81;5004811;28;20206;-78
2023/12/03 00:43:44;;;;;;;13.83;9.30;;;;;;;0.17;nan;100044.53;5001903;28;20211;-78
2023/12/03 00:46:09;;;;;;;10.03;7.30;;;;;;;0.17;nan;100054.84;5000228;28;20198;-78
2023/12/03 00:48:34;;;;;;;14.13;8.50;;;;;;;0.18;nan;100058.28;4998585;28;20195;-78
2023/12/03 00:51:00;;;;;;;14.80;8.43;;;;;;;0.20;nan;100057.41;4996651;28;20661;-78
2023/12/03 00:53:25;;;;;;;15.67;8.17;;;;;;;0.20;nan;100061.72;5009739;28;20203;-78
2023/12/03 00:55:52;;;;;;;13.50;6.80;;;;;;;0.16;nan;100066.06;4996065;28;20203;-78
2023/12/03 00:58:18;;;;;;;10.45;7.38;;;;;;;0.10;nan;100060.97;4998412;28;20688;-78
2023/12/03 01:00:43;;;;;;;9.57;7.57;;;;;;;0.09;nan;100068.75;4996156;28;20242;-78
2023/12/03 01:03:08;;;;;;;16.60;7.47;;;;;;;0.08;nan;100072.19;4998837;28;20234;-78
2023/12/03 01:05:34;;;;;;;10.00;7.40;;;;;;;0.07;nan;100068.75;4995541;28;20791;-78
2023/12/03 01:07:59;;;;;;;11.93;8.00;;;;;;;0.07;nan;100076.50;4997891;28;20450;-78
2023/12/03 01:10:25;;;;;;;19.23;8.47;;;;;;;0.06;nan;100079.97;4996427;28;20208;-78
2023/12/03 01:12:50;;;;;;;11.73;8.13;;;;;;;0.08;nan;100074.78;4995545;28;20359;-78
2023/12/03 01:15:15;;;;;;;12.27;8.37;;;;;;;0.10;nan;100078.22;4996964;28;20798;-78
2023/12/03 01:17:41;;;;;;;12.57;6.40;;;;;;;0.11;nan;100070.44;4998302;28;20191;-78
2023/12/03 01:20:07;;;;;;;9.43;5.73;;;;;;;0.11;nan;100072.16;4999064;28;20207;-78
2023/12/03 01:22:33;;;;;;;13.73;8.40;;;;;;;0.10;nan;100076.47;4991254;28;20919;-78
2023/12/03 01:24:58;;;;;;;11.70;6.93;;;;;;;0.10;nan;100073.03;4995593;28;20211;-78
2023/12/03 01:27:24;;;;;;;14.17;7.67;;;;;;;0.13;nan;100089.34;5002190;28;20457;-78
2023/12/03 01:29:49;;;;;;;15.07;9.50;;;;;;;0.16;nan;100091.91;4998763;28;20269;-78
2023/12/03 01:32:15;;;;;;;10.10;6.90;;;;;;;0.17;nan;100092.75;4997645;28;20261;-77
2023/12/03 01:34:41;;;;;;;13.17;7.87;;;;;;;0.14;nan;100093.66;4990321;28;20215;-78
2023/12/03 01:37:06;;;;;;;16.00;8.40;;;;;;;0.10;nan;100104.88;5001368;28;20203;-78
2023/12/03 01:39:32;;;;;;;11.80;6.57;;;;;;;0.08;nan;100100.59;4990859;28;20206;-79
2023/12/03 01:41:57;;;;;;;12.47;8.40;;;;;;;0.06;nan;100105.81;4997441;28;20536;-78
2023/12/03 01:44:22;;;;;;;11.47;7.33;;;;;;;0.04;nan;100102.38;4989247;28;20613;-78
2023/12/03 01:46:49;;;;;;;11.60;8.07;;;;;;;0.03;nan;100105.84;4994265;28;20223;-78
2023/12/03 01:49:16;;;;;;;14.77;8.32;;;;;;;0.03;nan;100110.13;4995964;28;20199;-78
2023/12/03 01:51:41;;;;;;;13.43;8.05;;;;;;;0.07;nan;100115.25;5003495;28;20250;-78
2023/12/03 01:54:07;;;;;;;10.67;7.33;;;;;;;0.12;nan;100116.06;4999782;28;20379;-78
2023/12/03 01:56:32;;;;;;;13.27;7.80;;;;;;;0.14;nan;100114.31;4990316;28;20264;-78
2023/12/03 01:58:58;;;;;;;17.80;9.10;;;;;;;0.17;nan;100116.84;4996163;28;21026;-79
2023/12/03 02:01:24;;;;;;;11.00;8.03;;;;;;;0.20;nan;100111.66;4996166;28;20202;-78
2023/12/03 02:03:49;;;;;;;10.57;6.40;;;;;;;0.18;nan;100110.81;4998526;28;20310;-79
2023/12/03 02:06:15;;;;;;;11.60;7.60;;;;;;;0.13;nan;100112.59;4996341;28;20575;-78
2023/12/03 02:08:40;;;;;;;16.93;10.87;;;;;;;0.12;nan;100108.31;4996582;28;20445;-78
2023/12/03 02:11:07;;;;;;;12.10;8.23;;;;;;;0.10;nan;100116.94;4996230;28;20490;-78
2023/12/03 02:13:37;;;;;;;13.48;8.52;;;;;;;0.04;nan;100112.72;5000807;28;20211;-78
2023/12/03 02:16:03;;;;;;;12.07;8.70;;;;;;;-0.01;nan;100110.19;4999778;28;20200;-78
2023/12/03 02:18:29;;;;;;;16.03;9.30;;;;;;;-0.02;nan;100103.31;4999763;28;20210;-78
2023/12/03 02:20:55;;;;;;;16.40;9.80;;;;;;;-0.04;nan;100107.66;4996103;28;20198;-78
2023/12/03 02:23:20;;;;;;;13.35;9.70;;;;;;;-0.03;nan;100113.66;4997361;28;20191;-79
2023/12/03 02:25:47;;;;;;;13.17;7.23;;;;;;;-0.05;nan;100105.94;4997429;28;20557;-78
2023/12/03 02:28:13;;;;;;;16.55;9.32;;;;;;;-0.07;nan;100105.09;4997329;28;20252;-79
2023/12/03 02:30:40;;;;;;;12.00;8.80;;;;;;;-0.08;nan;100118.03;4998300;28;20199;-78
2023/12/03 02:33:05;;;;;;;10.25;8.43;;;;;;;-0.08;nan;100112.84;4995317;28;20203;-78
2023/12/03 02:35:31;;;;;;;17.33;8.90;;;;;;;-0.07;nan;100114.59;4995219;28;20244;-79
2023/12/03 02:37:56;;;;;;;18.43;9.90;;;;;;;-0.07;nan;100112.84;4999468;28;20199;-78
2023/12/03 02:40:22;;;;;;;15.63;9.67;;;;;;;-0.07;nan;100114.59;4994496;28;20350;-79
2023/12/03 02:42:47;;;;;;;13.73;8.47;;;;;;;-0.11;nan;100111.19;4992749;28;20294;-79
2023/12/03 02:45:13;;;;;;;14.87;9.37;;;;;;;-0.15;nan;100116.41;4997717;28;20573;-78
2023/12/03 02:47:38;;;;;;;19.97;10.40;;;;;;;-0.19;nan;100120.72;4996443;28;20199;-78
2023/12/03 02:50:04;;;;;;;14.80;9.77;;;;;;;-0.20;nan;100121.59;4996835;28;20219;-79
2023/12/03 02:52:29;;;;;;;19.55;9.65;;;;;;;-0.22;nan;100125.94;4996168;28;20201;-79
2023/12/03 02:54:55;;;;;;;17.77;10.23;;;;;;;-0.25;nan;100121.66;4992904;28;20891;-79
2023/12/03 02:57:21;;;;;;;21.43;10.90;;;;;;;-0.24;nan;100125.97;4996692;28;20222;-78
2023/12/03 02:59:46;;;;;;;14.03;9.00;;;;;;;-0.24;nan;100128.53;4997011;28;21043;-79
2023/12/03 03:02:11;;;;;;;18.00;9.40;;;;;;;-0.23;nan;100126.81;4992260;28;20203;-79
2023/12/03 03:04:37;;;;;;;15.03;9.30;;;;;;;-0.23;nan;100124.22;4993055;28;20200;-79
2023/12/03 03:07:02;;;;;;;16.43;9.50;;;;;;;-0.25;nan;100121.66;4998822;28;20769;-78
2023/12/03 03:09:28;;;;;;;17.17;8.47;;;;;;;-0.26;nan;100129.44;4993041;28;20301;-78
2023/12/03 03:11:54;;;;;;;11.13;9.03;;;;;;;-0.27;nan;100128.59;4997004;28;20247;-78
2023/12/03 03:14:20;;;;;;;9.55;7.65;;;;;;;-0.35;nan;100114.03;4993806;28;20764;-78
2023/12/03 03:16:45;;;;;;;15.37;9.80;;;;;;;-0.45;nan;100119.31;4998596;28;20199;-80
2023/12/03 03:19:11;;;;;;;14.27;8.70;;;;;;;-0.50;nan;100123.66;5000276;28;20195;-80
2023/12/03 03:21:40;;;;;;;10.23;7.73;;;;;;;-0.53;nan;100122.84;5004182;28;20920;-80
2023/12/03 03:24:06;;;;;;;16.15;10.32;;;;;;;-0.53;nan;100123.69;5000525;28;20268;-80
2023/12/03 03:26:31;;;;;;;11.55;7.45;;;;;;;-0.57;nan;100119.41;4998345;28;20204;-80
2023/12/03 03:28:57;;;;;;;17.80;10.53;;;;;;;-0.65;nan;100121.22;5005682;28;20658;-79
2023/12/03 03:31:22;;;;;;;12.43;9.40;;;;;;;-0.69;nan;100125.56;5001765;28;20199;-80
2023/12/03 03:33:49;;;;;;;11.27;8.17;;;;;;;-0.70;nan;100123.00;5003847;28;20191;-80
2023/12/03 03:36:15;;;;;;;14.27;8.48;;;;;;;-0.78;nan;100120.50;4998882;28;20207;-80
2023/12/03 03:38:43;;;;;;;21.60;10.97;;;;;;;-0.78;nan;100130.81;5002341;28;20285;-80
2023/12/03 03:41:09;;;;;;;14.05;8.93;;;;;;;-0.83;nan;100135.16;4999597;28;20831;-80
2023/12/03 03:43:34;;;;;;;14.67;9.27;;;;;;;-0.84;nan;100140.31;5001391;28;20289;-80
2023/12/03 03:46:00;;;;;;;19.03;8.80;;;;;;;-0.88;nan;100142.06;5001577;28;20486;-80
2023/12/03 03:48:26;;;;;;;12.30;9.10;;;;;;;-0.96;nan;100146.44;5009846;28;20874;-80
2023/12/03 03:50:51;;;;;;;16.63;8.70;;;;;;;-1.06;nan;100143.06;5001863;28;20549;-80
2023/12/03 03:53:16;;;;;;;14.93;8.30;;;;;;;-1.16;nan;100150.03;4998174;28;20239;-80
2023/12/03 03:55:42;;;;;;;16.90;8.90;;;;;;;-1.22;nan;100156.94;5006180;28;20195;-80
2023/12/03 03:58:07;;;;;;;12.93;8.50;;;;;;;-1.30;nan;100158.72;5003679;28;20211;-80
2023/12/03 04:00:32;;;;;;;11.57;8.20;;;;;;;-1.36;nan;100162.19;5005826;28;20199;-79
2023/12/03 04:02:58;;;;;;;19.50;8.87;;;;;;;-1.39;nan;100162.22;5004426;28;20203;-80
2023/12/03 04:05:23;;;;;;;13.70;7.80;;;;;;;-1.36;nan;100168.19;5003263;28;20212;-80
2023/12/03 04:07:49;;;;;;;14.03;8.60;;;;;;;-1.31;nan;100169.91;5003342;28;20310;-80
2023/12/03 04:10:15;;;;;;;16.30;9.10;;;;;;;-1.32;nan;100163.91;5001335;28;20599;-79
2023/12/03 04:12:41;;;;;;;15.80;9.40;;;;;;;-1.34;nan;100174.19;5004030;28;20234;-80
2023/12/03 04:15:07;;;;;;;16.40;7.75;;;;;;;-1.35;nan;100175.06;4998684;28;20200;-80
2023/12/03 04:17:33;;;;;;;11.82;8.05;;;;;;;-1.36;nan;100177.66;5002677;28;20195;-80
2023/12/03 04:19:58;;;;;;;15.97;7.97;;;;;;;-1.35;nan;100179.34;5004111;28;20219;-81
2023/12/03 04:22:24;;;;;;;15.50;8.83;;;;;;;-1.38;nan;100184.53;5003501;28;20190;-81
2023/12/03 04:24:49;;;;;;;18.30;8.37;;;;;;;-1.41;nan;100189.69;4999733;28;20211;-79
2023/12/03 04:27:14;;;;;;;11.83;6.80;;;;;;;-1.40;nan;100188.84;4998821;28;20202;-79
2023/12/03 04:29:40;;;;;;;12.37;8.30;;;;;;;-1.40;nan;100194.00;5006772;28;20211;-79
2023/12/03 04:32:06;;;;;;;14.07;8.57;;;;;;;-1.42;nan;100190.56;5000356;28;20199;-80
2023/12/03 04:34:31;;;;;;;11.05;8.63;;;;;;;-1.42;nan;100188.00;5003264;28;20565;-79
2023/12/03 04:36:57;;;;;;;11.90;7.90;;;;;;;-1.42;nan;100188.00;5005414;28;20198;-79
2023/12/03 04:39:22;;;;;;;17.10;9.50;;;;;;;-1.42;nan;100190.56;4999853;28;20205;-80
2023/12/03 04:41:47;;;;;;;11.17;6.93;;;;;;;-1.40;nan;100196.59;5001906;28;20218;-80
2023/12/03 04:44:13;;;;;;;13.40;8.20;;;;;;;-1.43;nan;100196.56;5004199;28;20220;-79
2023/12/03 04:46:40;;;;;;;19.17;10.23;;;;;;;-1.44;nan;100202.59;5000158;28;20209;-80
2023/12/03 04:49:06;;;;;;;16.33;10.30;;;;;;;-1.45;nan;100194.03;4999695;28;20648;-80
2023/12/03 04:51:32;;;;;;;17.50;8.63;;;;;;;-1.49;nan;100202.63;4995384;28;20503;-79
2023/12/03 04:53:57;;;;;;;13.73;8.70;;;;;;;-1.55;nan;100202.66;4997790;28;20493;-79
2023/12/03 04:56:23;;;;;;;18.80;9.80;;;;;;;-1.63;nan;100214.72;4999989;28;20671;-79
2023/12/03 04:58:49;;;;;;;16.83;9.40;;;;;;;-1.65;nan;100206.97;5014314;28;20325;-79
2023/12/03 05:01:19;;;;;;;14.87;7.07;;;;;;;-1.69;nan;100205.28;5001050;28;20286;-80
2023/12/03 05:03:45;;;;;;;9.70;7.97;;;;;;;-1.76;nan;100208.75;4998004;28;20971;-80
2023/12/03 05:06:11;;;;;;;12.77;7.80;;;;;;;-1.76;nan;100208.75;5001614;28;20286;-79
2023/12/03 05:08:37;;;;;;;13.87;8.07;;;;;;;-1.78;nan;100202.78;5001709;28;20237;-79
2023/12/03 05:11:06;;;;;;;10.73;7.10;;;;;;;-1.80;nan;100207.91;5002755;28;20442;-79
2023/12/03 05:13:32;;;;;;;7.70;6.45;;;;;;;-1.84;nan;100205.34;4993524;28;20204;-80
2023/12/03 05:16:00;;;;;;;10.48;8.30;;;;;;;-1.86;nan;100202.78;5003365;28;20262;-80
2023/12/03 05:18:25;;;;;;;15.13;6.45;;;;;;;-1.87;nan;100213.09;5004435;28;20706;-79
2023/12/03 05:20:50;;;;;;;10.50;7.00;;;;;;;-1.89;nan;100214.81;4999587;28;20202;-79
2023/12/03 05:23:16;;;;;;;15.73;8.60;;;;;;;-1.90;nan;100224.25;5004710;28;20279;-80
2023/12/03 05:25:41;;;;;;;11.40;5.83;;;;;;;-1.92;nan;100217.38;5001939;28;21734;-79
2023/12/03 05:28:07;;;;;;;14.70;7.30;;;;;;;-1.95;nan;100222.56;5005633;28;20199;-79
2023/12/03 05:30:32;;;;;;;12.00;9.10;;;;;;;-1.96;nan;100226.00;5004380;28;20301;-79
2023/12/03 05:32:58;;;;;;;14.40;8.73;;;;;;;-1.96;nan;100233.72;5005306;28;20195;-79
2023/12/03 05:35:23;;;;;;;11.00;7.43;;;;;;;-1.97;nan;100225.16;5004867;28;20274;-79
2023/12/03 05:37:49;;;;;;;16.67;9.60;;;;;;;-1.96;nan;100226.84;5000325;28;20472;-80
2023/12/03 05:40:14;;;;;;;13.63;8.37;;;;;;;-1.95;nan;100227.69;5003699;28;20230;-79
2023/12/03 05:42:40;;;;;;;12.63;8.00;;;;;;;-1.96;nan;100228.56;5007251;28;20229;-79
2023/12/03 05:45:06;;;;;;;16.27;7.70;;;;;;;-1.98;nan;100233.72;5001361;28;20663;-79
2023/12/03 05:47:31;;;;;;;15.75;9.13;;;;;;;-2.00;nan;100232.84;5000760;28;20199;-80
2023/12/03 05:50:01;;;;;;;11.17;6.60;;;;;;;-2.00;nan;100225.13;5010828;28;20202;-78
2023/12/03 05:52:27;;;;;;;14.50;8.07;;;;;;;-2.06;nan;100233.72;5005230;28;20198;-78
2023/12/03 05:54:53;;;;;;;18.90;7.82;;;;;;;-2.10;nan;100236.34;5003308;28;20261;-80
2023/12/03 05:57:19;;;;;;;13.10;8.37;;;;;;;-2.13;nan;100233.75;5000455;28;20211;-79
2023/12/03 05:59:44;;;;;;;10.50;7.37;;;;;;;-2.12;nan;100245.75;5003204;28;20289;-79
2023/12/03 06:02:09;;;;;;;10.50;8.27;;;;;;;-2.11;nan;100248.31;5000312;28;20225;-80
2023/12/03 06:04:35;;;;;;;14.60;7.03;;;;;;;-2.10;nan;100247.47;5006146;28;20231;-80
2023/12/03 06:07:00;;;;;;;12.20;6.37;;;;;;;-2.12;nan;100248.34;5001883;28;20211;-79
2023/12/03 06:09:26;;;;;;;16.63;8.33;;;;;;;-2.21;nan;100249.22;4993557;28;20190;-77
2023/12/03 06:11:51;;;;;;;10.50;7.47;;;;;;;-2.23;nan;100258.66;4994583;28;20951;-77
2023/12/03 06:14:19;;;;;;;15.67;7.70;;;;;;;-2.24;nan;100256.94;5001495;28;20202;-78
2023/12/03 06:16:45;;;;;;;11.85;6.88;;;;;;;-2.25;nan;100255.22;4991902;28;20209;-78
2023/12/03 06:19:10;;;;;;;12.20;6.87;;;;;;;-2.31;nan;100252.66;4990025;28;20204;-78
2023/12/03 06:21:35;;;;;;;16.17;8.53;;;;;;;-2.34;nan;100261.22;4990375;28;20677;-76
2023/12/03 06:24:01;;;;;;;12.00;8.50;;;;;;;-2.32;nan;100263.78;4999009;28;20207;-76
2023/12/03 06:26:26;;;;;;;10.77;6.50;;;;;;;-2.31;nan;100266.38;4990438;28;20478;-76
2023/12/03 06:28:51;;;;;;;11.40;7.20;;;;;;;-2.29;nan;100266.38;4991923;28;20201;-76
2023/12/03 06:31:17;;;;;;;14.33;8.07;;;;;;;-2.27;nan;100267.22;4994835;28;20926;-76
2023/12/03 06:33:42;;;;;;;33.77;9.93;;;;;;;-2.29;nan;100272.38;4993778;28;20203;-76
2023/12/03 06:36:09;;;;;;;14.80;8.03;;;;;;;-2.34;nan;100276.66;4995131;28;20230;-77
2023/12/03 06:38:36;;;;;;;18.88;11.15;;;;;;;-2.34;nan;100274.09;4998868;28;20664;-77
2023/12/03 06:41:01;;;;;;;12.88;10.32;;;;;;;-2.37;nan;100276.66;4994105;28;20202;-76
2023/12/03 06:43:26;;;;;;;19.93;8.80;;;;;;;-2.37;nan;100275.81;4998030;28;20739;-79
2023/12/03 06:45:52;;;;;;;22.27;12.50;;;;;;;-2.37;nan;100281.81;5009757;28;20710;-79
2023/12/03 06:48:17;;;;;;;19.13;9.00;;;;;;;-2.38;nan;100276.66;5005991;28;20237;-80
2023/12/03 06:50:43;;;;;;;15.77;9.00;;;;;;;-2.42;nan;100283.53;5009928;28;20736;-80
2023/12/03 06:53:08;;;;;;;21.67;9.73;;;;;;;-2.42;nan;100290.41;5009572;28;20195;-80
2023/12/03 06:55:33;;;;;;;13.80;9.17;;;;;;;-2.43;nan;100289.53;5001439;28;20195;-80
2023/12/03 06:57:59;;;;;;;15.70;8.30;;;;;;;-2.42;nan;100285.25;5002028;28;20971;-80
2023/12/03 07:00:24;;;;;;;16.43;9.20;;;;;;;-2.43;nan;100284.41;4999999;28;20195;-78
2023/12/03 07:02:50;;;;;;;18.43;9.70;;;;;;;-2.42;nan;100282.69;4990618;28;20202;-79
2023/12/03 07:05:17;;;;;;;16.50;9.03;;;;;;;-2.46;nan;100286.94;4996165;28;20215;-79
2023/12/03 07:07:48;;;;;;;13.70;8.43;;;;;;;-2.51;nan;100283.50;4999699;28;21068;-79
2023/12/03 07:10:13;;;;;;;17.05;8.48;;;;;;;-2.56;nan;100287.81;4998442;28;20215;-79
2023/12/03 07:12:39;;;;;;;11.27;6.73;;;;;;;-2.61;nan;100276.66;5001308;28;20187;-80
2023/12/03 07:15:04;;;;;;;14.17;8.60;;;;;;;-2.65;nan;100275.78;5004867;28;20203;-79
2023/12/03 07:17:30;;;;;;;13.57;7.33;;;;;;;-2.69;nan;100274.94;5004605;28;20193;-80
2023/12/03 07:19:55;;;;;;;15.93;9.17;;;;;;;-2.71;nan;100280.94;5001001;28;20522;-79
2023/12/03 07:22:21;;;;;;;14.20;8.47;;;;;;;-2.68;nan;100280.94;5003575;28;20533;-79
2023/12/03 07:24:46;;;;;;;11.37;9.20;;;;;;;-2.64;nan;100286.97;5013885;28;20288;-78
2023/12/03 07:27:12;;;;;;;8.80;6.07;;;;;;;-2.61;nan;100292.09;5012243;28;20187;-80
2023/12/03 07:29:37;;;;;;;12.93;7.83;;;;;;;-2.56;nan;100286.09;5011084;28;20918;-80
2023/12/03 07:32:03;;;;;;;14.70;9.00;;;;;;;-2.54;nan;100283.50;5009653;28;20205;-79
2023/12/03 07:34:28;;;;;;;11.70;7.80;;;;;;;-2.54;nan;100289.53;5009378;28;20238;-79
2023/12/03 07:36:54;;;;;;;10.37;7.30;;;;;;;-2.51;nan;100288.66;4997675;28;20502;-79
2023/12/03 07:39:20;;;;;;;12.13;7.70;;;;;;;-2.48;nan;100296.41;5010854;28;20262;-79
2023/12/03 07:41:52;;;;;;;12.48;7.05;;;;;;;-2.48;nan;100288.69;5010589;28;20282;-80
2023/12/03 07:44:18;;;;;;;10.18;7.10;;;;;;;-2.45;nan;100284.38;4999236;28;20327;-79
2023/12/03 07:46:44;;;;;;;13.95;9.73;;;;;;;-2.43;nan;100283.50;4989481;28;20230;-79
2023/12/03 07:49:09;;;;;;;11.03;8.43;;;;;;;-2.41;nan;100280.09;4997530;28;20219;-79
2023/12/03 07:51:35;;;;;;;13.70;8.43;;;;;;;-2.35;nan;100274.09;4998395;28;20824;-79
2023/12/03 07:54:00;;;;;;;8.40;6.90;;;;;;;-2.25;nan;100276.66;4999565;28;20207;-79
2023/12/03 07:56:39;;;;;;;9.63;8.73;;;;;;;-2.15;nan;100272.38;4998250;28;20215;-79
2023/12/03 07:59:05;;;;;;;13.55;9.07;;;;;;;-2.07;nan;100274.94;4995065;28;20206;-79
2023/12/03 08:01:31;;;;;;;16.30;7.83;;;;;;;-2.11;nan;100268.91;5001959;28;20187;-79
2023/12/03 08:03:57;;;;;;;11.60;8.20;;;;;;;-2.10;nan;100269.78;5003025;28;20470;-79
2023/12/03 08:06:23;;;;;;;12.13;7.53;;;;;;;-2.07;nan;100270.63;4995141;28;20512;-79
2023/12/03 08:08:48;;;;;;;17.10;10.77;;;;;;;-1.99;nan;100269.78;4990918;28;20450;-80
2023/12/03 08:11:14;;;;;;;14.13;8.23;;;;;;;-1.97;nan;100276.63;4999732;28;20242;-78
2023/12/03 08:13:39;;;;;;;14.87;8.90;;;;;;;-1.93;nan;100282.63;4999686;28;20337;-79
2023/12/03 08:16:05;;;;;;;14.90;8.30;;;;;;;-1.89;nan;100282.63;4999870;28;20202;-79
2023/12/03 08:18:31;;;;;;;11.27;7.53;;;;;;;-1.82;nan;100286.03;5000291;28;20899;-79
2023/12/03 08:20:57;;;;;;;16.77;8.50;;;;;;;-1.75;nan;100292.03;4994363;28;20621;-79
2023/12/03 08:23:23;;;;;;;8.97;7.90;;;;;;;-1.68;nan;100299.72;4995021;28;20272;-79
2023/12/03 08:25:48;;;;;;;13.33;7.80;;;;;;;-1.61;nan;100300.56;4998449;28;20349;-79
2023/12/03 08:28:14;;;;;;;15.10;8.03;;;;;;;-1.57;nan;100305.72;4996513;28;20688;-79
2023/12/03 08:30:39;;;;;;;13.97;8.60;;;;;;;-1.51;nan;100301.38;4999077;28;20199;-79
2023/12/03 08:33:04;;;;;;;22.27;9.07;;;;;;;-1.44;nan;100306.50;4999863;28;20310;-79
2023/12/03 08:35:31;;;;;;;8.60;6.80;;;;;;;-0.95;nan;100302.84;4998151;28;20665;-79
2023/12/03 08:37:57;;;;;;;13.02;8.15;;;;;;;0.09;nan;100296.91;4999315;28;20226;-79
2023/12/03 08:40:22;;;;;;;10.63;7.20;;;;;;;1.18;nan;100284.38;4995308;28;20199;-79
2023/12/03 08:42:48;;;;;;;16.63;6.93;;;;;;;2.22;nan;100283.53;4998846;28;20945;-79
2023/12/03 08:45:13;;;;;;;8.97;7.30;;;;;;;2.94;nan;100270.00;4997851;28;20219;-79
2023/12/03 08:47:39;;;;;;;15.87;8.50;;;;;;;3.55;nan;100271.19;4997593;28;20202;-80
2023/12/03 08:50:05;;;;;;;14.40;9.37;;;;;;;4.24;nan;100273.75;5005701;28;20195;-78
2023/12/03 08:52:31;;;;;;;11.50;7.53;;;;;;;5.07;nan;100277.44;5000021;28;20595;-79
2023/12/03 08:54:56;;;;;;;9.70;7.27;;;;;;;6.01;nan;100277.94;5001598;28;20208;-78
2023/12/03 08:57:22;;;;;;;13.00;7.70;;;;;;;6.81;nan;100281.16;4994654;28;20183;-78
2023/12/03 08:59:49;;;;;;;11.87;8.40;;;;;;;7.45;nan;100276.97;5001041;28;20199;-78
2023/12/03 09:02:16;;;;;;;17.55;7.90;;;;;;;8.17;nan;100274.81;4996828;28;20200;-79
2023/12/03 09:04:42;;;;;;;14.05;10.75;;;;;;;8.76;nan;100275.75;5001945;28;20298;-79
2023/12/03 09:07:07;;;;;;;12.40;10.30;;;;;;;9.03;nan;100273.63;4996773;28;20315;-79
2023/12/03 09:09:33;;;;;;;16.67;12.30;;;;;;;8.44;nan;100285.03;4996704;28;20468;-79
2023/12/03 09:11:58;;;;;;;17.80;13.20;;;;;;;7.52;nan;100294.97;4996118;28;20187;-78
2023/12/03 09:14:44;;;;;;;19.50;14.00;;;;;;;6.70;nan;100293.78;5002019;28;20227;-79
2023/12/03 09:17:11;;;;;;;15.25;11.50;;;;;;;5.92;nan;100297.31;4993178;28;20295;-80
2023/12/03 09:23:24;;;;;;;15.57;10.20;;;;;;;4.75;nan;100297.50;4995554;28;20485;-80
2023/12/03 09:25:50;;;;;;;20.70;11.55;;;;;;;4.16;nan;100306.03;5016398;28;20660;-79
2023/12/03 09:28:16;;;;;;;17.33;10.30;;;;;;;3.66;nan;100310.75;5014213;28;20199;-80
2023/12/03 09:34:37;;;;;;;15.80;10.10;;;;;;;3.65;nan;100310.78;4964043;28;20603;-79
2023/12/03 09:37:10;;;;;;;16.80;11.02;;;;;;;3.67;nan;100320.25;4997303;28;20247;-77
2023/12/03 09:39:36;;;;;;;14.30;9.75;;;;;;;3.78;nan;100307.00;5006436;28;20490;-79
2023/12/03 09:42:09;;;;;;;9.18;7.47;;;;;;;3.94;nan;100310.06;5003392;28;20692;-79
2023/12/03 09:44:56;;;;;;;10.63;7.13;;;;;;;4.34;nan;100302.06;4999547;28;20215;-79
2023/12/03 09:47:29;;;;;;;8.10;6.78;;;;;;;5.19;nan;100297.91;4994352;28;20191;-78
2023/12/03 09:50:16;;;;;;;13.98;9.05;;;;;;;6.17;nan;100288.69;5002948;28;20206;-79
2023/12/03 09:53:09;;;;;;;9.63;7.35;;;;;;;7.12;nan;100285.22;4996967;28;20510;-78
2023/12/03 09:55:45;;;;;;;9.70;6.72;;;;;;;7.74;nan;100287.09;4998984;28;20245;-79
2023/12/03 09:58:42;;;;;;;12.25;6.47;;;;;;;7.91;nan;100275.94;5001758;28;20294;-79
2023/12/03 10:01:31;;;;;;;8.80;7.32;;;;;;;7.72;nan;100281.09;5009303;28;20214;-79
2023/12/03 10:04:02;;;;;;;6.60;5.57;;;;;;;7.19;nan;100275.41;5004146;28;20215;-78
2023/12/03 10:06:34;;;;;;;9.52;6.20;;;;;;;6.52;nan;100269.19;5003366;28;20214;-78
2023/12/03 10:13:20;;;;;;;11.13;6.32;;;;;;;4.89;nan;100273.66;4918503;29;20774;-79
2023/12/03 10:15:50;;;;;;;13.00;6.75;;;;;;;4.24;nan;100268.56;4963416;28;20432;-78
2023/12/03 10:18:22;;;;;;;8.40;6.28;;;;;;;3.64;nan;100268.34;5004134;28;20508;-78
2023/12/03 10:21:13;;;;;;;9.98;6.10;;;;;;;3.15;nan;100272.09;5001163;28;20297;-79
2023/12/03 10:23:39;;;;;;;8.02;5.68;;;;;;;2.79;nan;100266.84;5007783;28;20206;-78
2023/12/03 10:26:12;;;;;;;7.57;5.83;;;;;;;2.57;nan;100263.00;4998728;28;20347;-80
2023/12/03 10:28:42;;;;;;;7.78;6.22;;;;;;;2.46;nan;100263.22;4997869;28;20462;-79
2023/12/03 10:31:12;;;;;;;11.30;6.25;;;;;;;2.37;nan;100259.03;4995687;28;20217;-80
2023/12/03 10:33:38;;;;;;;9.82;7.22;;;;;;;2.28;nan;100264.41;5001221;28;20234;-79
2023/12/03 10:36:04;;;;;;;8.80;5.72;;;;;;;2.17;nan;100262.03;4996989;28;20261;-78
2023/12/03 10:38:38;;;;;;;12.15;8.05;;;;;;;2.01;nan;100259.75;5000197;28;20264;-79
2023/12/03 10:41:13;;;;;;;8.45;6.57;;;;;;;1.85;nan;100254.84;5002542;28;20195;-79
2023/12/03 10:43:40;;;;;;;10.35;5.97;;;;;;;1.75;nan;100248.09;4997892;28;20225;-78
2023/12/03 10:46:10;;;;;;;10.48;6.30;;;;;;;1.69;nan;100241.28;4996492;28;20293;-78
2023/12/03 10:48:37;;;;;;;9.80;5.50;;;;;;;1.65;nan;100244.84;4998225;28;20249;-77
2023/12/03 10:51:08;;;;;;;7.53;5.93;;;;;;;1.67;nan;100240.47;4996618;28;20195;-77
2023/12/03 10:53:36;;;;;;;9.30;5.50;;;;;;;1.71;nan;100236.09;4993903;28;20979;-77
2023/12/03 10:56:04;;;;;;;10.93;6.57;;;;;;;1.71;nan;100230.91;4995557;28;20203;-77
2023/12/03 10:58:31;;;;;;;7.50;4.80;;;;;;;1.69;nan;100227.50;5004475;28;20191;-77
2023/12/03 11:01:23;;;;;;;8.27;4.75;;;;;;;1.62;nan;100223.28;4998933;28;20211;-77
2023/12/03 11:03:58;;;;;;;7.72;5.13;;;;;;;1.59;nan;100219.00;4994051;28;20297;-77
2023/12/03 11:06:24;;;;;;;6.95;4.82;;;;;;;1.59;nan;100215.59;4996778;28;20217;-77
2023/12/03 11:08:51;;;;;;;8.80;6.53;;;;;;;1.64;nan;100213.78;5000496;28;20445;-77
2023/12/03 11:11:19;;;;;;;11.90;5.45;;;;;;;1.66;nan;100206.84;4999873;28;20539;-77
2023/12/03 11:13:46;;;;;;;8.05;5.63;;;;;;;1.70;nan;100203.28;4997594;28;20210;-77
2023/12/03 11:16:14;;;;;;;6.25;5.07;;;;;;;1.65;nan;100208.56;4993375;28;20223;-78
2023/12/03 11:18:47;;;;;;;6.18;4.10;;;;;;;1.65;nan;100205.13;4995072;28;20195;-78
2023/12/03 11:21:27;;;;;;;9.02;4.40;;;;;;;1.68;nan;100194.72;5000967;28;20202;-77
2023/12/03 11:24:12;;;;;;;8.05;4.80;;;;;;;1.69;nan;100201.59;5001981;28;20214;-77
2023/12/03 11:26:37;;;;;;;6.35;4.10;;;;;;;1.73;nan;100198.09;4995456;28;20203;-76
2023/12/03 11:29:03;;;;;;;12.27;6.43;;;;;;;1.78;nan;100193.66;4999127;28;20202;-77
2023/12/03 11:31:28;;;;;;;9.70;5.40;;;;;;;1.84;nan;100203.06;4998054;28;20794;-78
2023/12/03 11:33:59;;;;;;;4.90;4.23;;;;;;;1.83;nan;100198.75;4987525;28;20227;-78
2023/12/03 11:36:49;;;;;;;6.50;4.93;;;;;;;1.86;nan;100196.09;4998731;28;20203;-77
2023/12/03 11:39:15;;;;;;;8.65;5.35;;;;;;;1.88;nan;100186.56;4993012;28;21151;-77
2023/12/03 11:41:44;;;;;;;9.27;5.95;;;;;;;1.86;nan;100184.00;5000934;28;20241;-77
2023/12/03 11:44:20;;;;;;;6.63;5.20;;;;;;;1.87;nan;100177.09;4998601;28;20947;-77
2023/12/03 11:46:48;;;;;;;7.75;4.50;;;;;;;1.90;nan;100177.06;4999579;28;20233;-77
2023/12/03 11:49:14;;;;;;;11.23;6.10;;;;;;;1.92;nan;100170.97;4992313;28;20646;-77
2023/12/03 11:51:39;;;;;;;6.90;4.47;;;;;;;1.91;nan;100169.22;4999924;28;20227;-78